sensor_id;sensor_type;location;lat;lon;timestamp;pressure;altitude;pressure_sealevel;temperature;humidity
68179;BME280;69812;42.632;23.440;2023-04-30T00:01:56;94796.75;;;5.43;81.79
68179;BME280;69812;42.632;23.440;2023-04-30T00:04:22;94805.63;;;5.38;81.61
68179;BME280;69812;42.632;23.440;2023-04-30T00:06:47;94799.03;;;5.35;81.68
68179;BME280;69812;42.632;23.440;2023-04-30T00:09:15;94803.75;;;5.28;82.02
68179;BME280;69812;42.632;23.440;2023-04-30T00:11:40;94796.13;;;5.28;81.80
68179;BME280;69812;42.632;23.440;2023-04-30T00:14:08;94796.94;;;5.29;81.74
68179;BME280;69812;42.632;23.440;2023-04-30T00:16:34;94797.25;;;5.24;82.40
68179;BME280;69812;42.632;23.440;2023-04-30T00:18:59;94795.31;;;5.28;82.50
68179;BME280;69812;42.632;23.440;2023-04-30T00:21:25;94788.53;;;5.15;82.52
68179;BME280;69812;42.632;23.440;2023-04-30T00:23:50;94798.72;;;5.15;82.71
68179;BME280;69812;42.632;23.440;2023-04-30T00:26:16;94786.34;;;5.11;83.02
68179;BME280;69812;42.632;23.440;2023-04-30T00:28:42;94786.06;;;5.03;83.09
68179;BME280;69812;42.632;23.440;2023-04-30T00:31:07;94792.28;;;4.99;83.16
68179;BME280;69812;42.632;23.440;2023-04-30T00:33:48;94790.88;;;4.94;82.80
68179;BME280;69812;42.632;23.440;2023-04-30T00:36:14;94794.44;;;4.92;82.89
68179;BME280;69812;42.632;23.440;2023-04-30T00:38:39;94809.69;;;4.92;82.65
68179;BME280;69812;42.632;23.440;2023-04-30T00:41:05;94788.06;;;4.86;82.96
68179;BME280;69812;42.632;23.440;2023-04-30T00:43:30;94794.19;;;4.84;82.75
68179;BME280;69812;42.632;23.440;2023-04-30T00:45:56;94795.19;;;4.81;82.72
68179;BME280;69812;42.632;23.440;2023-04-30T00:48:23;94779.66;;;4.73;83.21
68179;BME280;69812;42.632;23.440;2023-04-30T00:50:49;94801.28;;;4.79;83.04
68179;BME280;69812;42.632;23.440;2023-04-30T00:53:15;94788.91;;;4.74;83.35
68179;BME280;69812;42.632;23.440;2023-04-30T00:55:42;94789.00;;;4.72;83.24
68179;BME280;69812;42.632;23.440;2023-04-30T00:58:08;94787.63;;;4.68;83.03
68179;BME280;69812;42.632;23.440;2023-04-30T01:00:33;94786.69;;;4.69;83.45
68179;BME280;69812;42.632;23.440;2023-04-30T01:02:59;94785.88;;;4.69;83.16
68179;BME280;69812;42.632;23.440;2023-04-30T01:05:27;94801.09;;;4.82;83.46
68179;BME280;69812;42.632;23.440;2023-04-30T01:07:55;94791.66;;;4.71;83.52
68179;BME280;69812;42.632;23.440;2023-04-30T01:10:31;94785.59;;;4.61;83.52
68179;BME280;69812;42.632;23.440;2023-04-30T01:13:08;94790.91;;;4.45;83.99
68179;BME280;69812;42.632;23.440;2023-04-30T01:18:48;94797.72;;;4.44;83.65
68179;BME280;69812;42.632;23.440;2023-04-30T01:21:17;94785.00;;;4.31;83.91
68179;BME280;69812;42.632;23.440;2023-04-30T01:29:26;94800.09;;;4.22;84.27
68179;BME280;69812;42.632;23.440;2023-04-30T01:31:51;94797.13;;;4.15;84.30
68179;BME280;69812;42.632;23.440;2023-04-30T01:34:17;94804.53;;;4.18;83.78
68179;BME280;69812;42.632;23.440;2023-04-30T01:36:55;94799.59;;;4.17;83.82
68179;BME280;69812;42.632;23.440;2023-04-30T01:42:15;94804.75;;;4.15;83.60
68179;BME280;69812;42.632;23.440;2023-04-30T01:47:49;94796.84;;;4.07;82.96
68179;BME280;69812;42.632;23.440;2023-04-30T01:50:22;94795.94;;;3.95;82.72
68179;BME280;69812;42.632;23.440;2023-04-30T01:52:51;94789.94;;;3.96;82.71
68179;BME280;69812;42.632;23.440;2023-04-30T01:55:27;94791.03;;;3.92;82.58
68179;BME280;69812;42.632;23.440;2023-04-30T01:57:56;94793.38;;;3.95;82.71
68179;BME280;69812;42.632;23.440;2023-04-30T02:00:26;94779.38;;;3.89;82.70
68179;BME280;69812;42.632;23.440;2023-04-30T02:02:52;94782.22;;;3.98;83.06
68179;BME280;69812;42.632;23.440;2023-04-30T02:05:18;94794.91;;;3.98;83.02
68179;BME280;69812;42.632;23.440;2023-04-30T02:07:45;94793.41;;;4.08;83.09
68179;BME280;69812;42.632;23.440;2023-04-30T02:10:12;94781.50;;;3.96;83.12
68179;BME280;69812;42.632;23.440;2023-04-30T02:12:38;94797.53;;;4.09;83.47
68179;BME280;69812;42.632;23.440;2023-04-30T02:15:04;94782.22;;;3.98;83.29
68179;BME280;69812;42.632;23.440;2023-04-30T02:17:31;94798.66;;;4.05;83.07
68179;BME280;69812;42.632;23.440;2023-04-30T02:19:57;94793.78;;;4.02;83.28
68179;BME280;69812;42.632;23.440;2023-04-30T02:22:28;94798.56;;;3.94;83.35
68179;BME280;69812;42.632;23.440;2023-04-30T02:24:53;94785.47;;;3.87;82.94
68179;BME280;69812;42.632;23.440;2023-04-30T02:27:22;94809.44;;;3.96;82.78
68179;BME280;69812;42.632;23.440;2023-04-30T02:29:48;94802.31;;;4.01;83.31
68179;BME280;69812;42.632;23.440;2023-04-30T02:32:13;94787.91;;;3.88;83.01
68179;BME280;69812;42.632;23.440;2023-04-30T02:34:39;94794.41;;;3.93;83.15
68179;BME280;69812;42.632;23.440;2023-04-30T02:37:05;94789.91;;;3.83;82.97
68179;BME280;69812;42.632;23.440;2023-04-30T02:39:33;94798.88;;;3.89;83.16
68179;BME280;69812;42.632;23.440;2023-04-30T02:42:10;94793.16;;;3.85;83.08
68179;BME280;69812;42.632;23.440;2023-04-30T02:44:35;94802.53;;;3.85;83.36
68179;BME280;69812;42.632;23.440;2023-04-30T02:47:01;94799.56;;;3.78;83.17
68179;BME280;69812;42.632;23.440;2023-04-30T02:49:27;94791.25;;;3.76;83.31
68179;BME280;69812;42.632;23.440;2023-04-30T02:51:53;94805.06;;;3.85;83.34
68179;BME280;69812;42.632;23.440;2023-04-30T02:54:18;94800.69;;;3.87;83.39
68179;BME280;69812;42.632;23.440;2023-04-30T02:56:44;94800.38;;;3.91;83.50
68179;BME280;69812;42.632;23.440;2023-04-30T02:59:10;94791.16;;;3.90;84.09
68179;BME280;69812;42.632;23.440;2023-04-30T03:01:36;94800.09;;;4.09;84.20
68179;BME280;69812;42.632;23.440;2023-04-30T03:04:01;94807.19;;;4.29;84.70
68179;BME280;69812;42.632;23.440;2023-04-30T03:06:29;94818.88;;;4.45;84.84
68179;BME280;69812;42.632;23.440;2023-04-30T03:08:55;94817.94;;;4.59;85.13
68179;BME280;69812;42.632;23.440;2023-04-30T03:11:33;94823.59;;;4.75;85.73
68179;BME280;69812;42.632;23.440;2023-04-30T03:14:01;94818.78;;;4.83;85.50
68179;BME280;69812;42.632;23.440;2023-04-30T03:16:29;94821.59;;;4.91;85.43
68179;BME280;69812;42.632;23.440;2023-04-30T03:18:55;94819.88;;;4.92;85.69
68179;BME280;69812;42.632;23.440;2023-04-30T03:21:21;94819.34;;;5.00;85.47
68179;BME280;69812;42.632;23.440;2023-04-30T03:23:49;94821.03;;;5.12;85.38
68179;BME280;69812;42.632;23.440;2023-04-30T03:26:14;94824.44;;;5.24;85.14
68179;BME280;69812;42.632;23.440;2023-04-30T03:28:40;94819.53;;;5.33;85.23
68179;BME280;69812;42.632;23.440;2023-04-30T03:31:17;94824.66;;;5.45;85.07
68179;BME280;69812;42.632;23.440;2023-04-30T03:33:42;94830.88;;;5.65;85.31
68179;BME280;69812;42.632;23.440;2023-04-30T03:36:07;94820.97;;;5.84;85.00
68179;BME280;69812;42.632;23.440;2023-04-30T03:38:33;94827.50;;;6.00;85.14
68179;BME280;69812;42.632;23.440;2023-04-30T03:41:01;94822.44;;;6.11;85.12
68179;BME280;69812;42.632;23.440;2023-04-30T03:43:28;94836.56;;;6.26;84.67
68179;BME280;69812;42.632;23.440;2023-04-30T03:45:53;94835.78;;;6.37;84.53
68179;BME280;69812;42.632;23.440;2023-04-30T03:48:19;94824.31;;;6.43;83.91
68179;BME280;69812;42.632;23.440;2023-04-30T03:50:46;94826.06;;;6.53;83.47
68179;BME280;69812;42.632;23.440;2023-04-30T03:53:12;94831.38;;;6.73;83.25
68179;BME280;69812;42.632;23.440;2023-04-30T03:55:37;94840.75;;;6.95;82.67
68179;BME280;69812;42.632;23.440;2023-04-30T03:58:03;94829.50;;;6.97;82.24
68179;BME280;69812;42.632;23.440;2023-04-30T04:00:28;94836.28;;;7.19;81.24
68179;BME280;69812;42.632;23.440;2023-04-30T04:02:58;94833.94;;;7.28;80.91
68179;BME280;69812;42.632;23.440;2023-04-30T04:05:24;94835.09;;;7.35;81.00
68179;BME280;69812;42.632;23.440;2023-04-30T04:07:51;94834.94;;;7.48;80.68
68179;BME280;69812;42.632;23.440;2023-04-30T04:10:16;94831.66;;;7.57;80.72
68179;BME280;69812;42.632;23.440;2023-04-30T04:12:43;94845.25;;;7.78;78.75
68179;BME280;69812;42.632;23.440;2023-04-30T04:15:09;94838.41;;;7.79;79.13
68179;BME280;69812;42.632;23.440;2023-04-30T04:17:37;94842.84;;;7.77;78.71
68179;BME280;69812;42.632;23.440;2023-04-30T04:20:02;94852.03;;;8.00;77.65
68179;BME280;69812;42.632;23.440;2023-04-30T04:22:30;94849.81;;;8.17;75.98
68179;BME280;69812;42.632;23.440;2023-04-30T04:24:55;94856.81;;;8.15;74.89
68179;BME280;69812;42.632;23.440;2023-04-30T04:27:21;94846.84;;;8.12;73.60
68179;BME280;69812;42.632;23.440;2023-04-30T04:29:46;94865.34;;;8.04;74.58
68179;BME280;69812;42.632;23.440;2023-04-30T04:32:12;94863.16;;;7.99;74.61
68179;BME280;69812;42.632;23.440;2023-04-30T04:34:38;94866.66;;;7.98;75.27
68179;BME280;69812;42.632;23.440;2023-04-30T04:37:04;94863.97;;;8.00;75.41
68179;BME280;69812;42.632;23.440;2023-04-30T04:39:30;94854.69;;;8.20;75.68
68179;BME280;69812;42.632;23.440;2023-04-30T04:41:55;94859.00;;;8.71;74.54
68179;BME280;69812;42.632;23.440;2023-04-30T04:44:20;94868.81;;;8.97;73.67
68179;BME280;69812;42.632;23.440;2023-04-30T04:46:47;94878.31;;;9.25;69.77
68179;BME280;69812;42.632;23.440;2023-04-30T04:49:26;94870.59;;;9.06;69.15
68179;BME280;69812;42.632;23.440;2023-04-30T04:51:51;94876.59;;;8.95;68.34
68179;BME280;69812;42.632;23.440;2023-04-30T04:54:17;94882.00;;;9.02;67.92
68179;BME280;69812;42.632;23.440;2023-04-30T04:56:42;94873.06;;;8.77;68.91
68179;BME280;69812;42.632;23.440;2023-04-30T04:59:07;94886.09;;;9.04;69.34
68179;BME280;69812;42.632;23.440;2023-04-30T05:01:33;94887.00;;;9.44;68.65
68179;BME280;69812;42.632;23.440;2023-04-30T05:04:20;94882.84;;;9.82;66.42
68179;BME280;69812;42.632;23.440;2023-04-30T05:06:46;94869.91;;;9.93;66.50
68179;BME280;69812;42.632;23.440;2023-04-30T05:09:11;94874.34;;;10.11;66.26
68179;BME280;69812;42.632;23.440;2023-04-30T05:11:39;94881.22;;;10.20;65.40
68179;BME280;69812;42.632;23.440;2023-04-30T05:14:06;94868.00;;;10.05;65.05
68179;BME280;69812;42.632;23.440;2023-04-30T05:16:31;94880.53;;;9.88;65.96
68179;BME280;69812;42.632;23.440;2023-04-30T05:18:56;94875.81;;;10.03;65.95
68179;BME280;69812;42.632;23.440;2023-04-30T05:21:22;94877.16;;;10.27;65.77
68179;BME280;69812;42.632;23.440;2023-04-30T05:23:50;94878.63;;;10.49;64.71
68179;BME280;69812;42.632;23.440;2023-04-30T05:26:15;94878.78;;;10.47;64.66
68179;BME280;69812;42.632;23.440;2023-04-30T05:28:41;94885.34;;;10.69;64.09
68179;BME280;69812;42.632;23.440;2023-04-30T05:31:09;94877.06;;;10.76;63.82
68179;BME280;69812;42.632;23.440;2023-04-30T05:33:34;94866.19;;;10.92;63.69
68179;BME280;69812;42.632;23.440;2023-04-30T05:36:01;94866.22;;;11.19;62.45
68179;BME280;69812;42.632;23.440;2023-04-30T05:38:27;94880.50;;;11.49;61.75
68179;BME280;69812;42.632;23.440;2023-04-30T05:41:10;94885.06;;;11.74;61.03
68179;BME280;69812;42.632;23.440;2023-04-30T05:43:35;94880.38;;;11.87;60.95
68179;BME280;69812;42.632;23.440;2023-04-30T05:46:01;94886.94;;;12.17;59.76
68179;BME280;69812;42.632;23.440;2023-04-30T05:48:38;94886.44;;;12.40;59.44
68179;BME280;69812;42.632;23.440;2023-04-30T05:51:04;94873.31;;;12.51;58.79
68179;BME280;69812;42.632;23.440;2023-04-30T05:53:35;94882.53;;;12.53;58.31
68179;BME280;69812;42.632;23.440;2023-04-30T05:56:00;94875.94;;;12.33;58.40
68179;BME280;69812;42.632;23.440;2023-04-30T05:58:44;94873.56;;;12.40;58.36
68179;BME280;69812;42.632;23.440;2023-04-30T06:01:10;94882.66;;;12.52;57.58
68179;BME280;69812;42.632;23.440;2023-04-30T06:03:36;94881.34;;;12.48;57.42
68179;BME280;69812;42.632;23.440;2023-04-30T06:06:02;94877.53;;;12.52;57.74
68179;BME280;69812;42.632;23.440;2023-04-30T06:08:30;94889.53;;;12.69;57.43
68179;BME280;69812;42.632;23.440;2023-04-30T06:10:58;94891.91;;;12.89;56.55
68179;BME280;69812;42.632;23.440;2023-04-30T06:13:24;94887.44;;;12.99;55.72
68179;BME280;69812;42.632;23.440;2023-04-30T06:15:53;94890.25;;;13.22;55.55
68179;BME280;69812;42.632;23.440;2023-04-30T06:18:18;94890.69;;;13.44;55.23
68179;BME280;69812;42.632;23.440;2023-04-30T06:20:44;94894.44;;;13.66;54.31
68179;BME280;69812;42.632;23.440;2023-04-30T06:23:20;94891.59;;;13.77;54.33
68179;BME280;69812;42.632;23.440;2023-04-30T06:25:46;94897.72;;;13.76;54.66
68179;BME280;69812;42.632;23.440;2023-04-30T06:28:11;94897.19;;;13.72;54.96
68179;BME280;69812;42.632;23.440;2023-04-30T06:30:37;94889.34;;;14.07;54.28
68179;BME280;69812;42.632;23.440;2023-04-30T06:33:02;94896.13;;;14.32;52.20
68179;BME280;69812;42.632;23.440;2023-04-30T06:35:28;94894.03;;;14.61;52.11
68179;BME280;69812;42.632;23.440;2023-04-30T06:37:53;94891.50;;;15.16;50.21
68179;BME280;69812;42.632;23.440;2023-04-30T06:40:18;94885.06;;;15.44;49.63
68179;BME280;69812;42.632;23.440;2023-04-30T06:42:45;94890.63;;;15.95;48.71
68179;BME280;69812;42.632;23.440;2023-04-30T06:45:25;94893.44;;;16.08;47.55
68179;BME280;69812;42.632;23.440;2023-04-30T06:47:50;94892.28;;;16.11;47.23
68179;BME280;69812;42.632;23.440;2023-04-30T06:50:17;94898.13;;;15.90;47.85
68179;BME280;69812;42.632;23.440;2023-04-30T06:52:42;94898.50;;;16.25;47.78
68179;BME280;69812;42.632;23.440;2023-04-30T06:55:08;94906.06;;;16.87;47.35
68179;BME280;69812;42.632;23.440;2023-04-30T06:57:36;94882.44;;;17.93;44.70
68179;BME280;69812;42.632;23.440;2023-04-30T07:00:05;94889.50;;;19.33;41.69
68179;BME280;69812;42.632;23.440;2023-04-30T07:02:31;94890.56;;;20.34;39.75
68179;BME280;69812;42.632;23.440;2023-04-30T07:04:57;94895.22;;;20.85;38.89
68179;BME280;69812;42.632;23.440;2023-04-30T07:07:23;94895.94;;;21.19;36.84
68179;BME280;69812;42.632;23.440;2023-04-30T07:09:48;94899.66;;;21.63;36.46
68179;BME280;69812;42.632;23.440;2023-04-30T07:12:14;94898.25;;;22.37;35.10
68179;BME280;69812;42.632;23.440;2023-04-30T07:14:47;94899.41;;;22.73;35.21
68179;BME280;69812;42.632;23.440;2023-04-30T07:17:13;94904.69;;;22.66;35.52
68179;BME280;69812;42.632;23.440;2023-04-30T07:19:38;94895.78;;;22.49;35.67
68179;BME280;69812;42.632;23.440;2023-04-30T07:22:04;94893.66;;;22.32;34.74
68179;BME280;69812;42.632;23.440;2023-04-30T07:24:38;94893.47;;;21.95;34.97
68179;BME280;69812;42.632;23.440;2023-04-30T07:27:04;94895.19;;;21.70;35.45
68179;BME280;69812;42.632;23.440;2023-04-30T07:29:33;94892.66;;;21.50;35.39
68179;BME280;69812;42.632;23.440;2023-04-30T07:31:59;94896.97;;;21.18;36.15
68179;BME280;69812;42.632;23.440;2023-04-30T07:34:24;94898.81;;;20.90;36.92
68179;BME280;69812;42.632;23.440;2023-04-30T07:36:50;94893.63;;;20.64;37.23
68179;BME280;69812;42.632;23.440;2023-04-30T07:39:15;94901.38;;;20.10;37.86
68179;BME280;69812;42.632;23.440;2023-04-30T07:41:42;94904.06;;;19.27;38.79
68179;BME280;69812;42.632;23.440;2023-04-30T07:44:07;94905.03;;;18.63;39.79
68179;BME280;69812;42.632;23.440;2023-04-30T07:46:33;94898.47;;;18.18;41.50
68179;BME280;69812;42.632;23.440;2023-04-30T07:48:59;94910.75;;;17.88;42.24
68179;BME280;69812;42.632;23.440;2023-04-30T07:51:26;94917.38;;;17.75;42.58
68179;BME280;69812;42.632;23.440;2023-04-30T07:53:52;94909.19;;;17.57;42.00
68179;BME280;69812;42.632;23.440;2023-04-30T07:56:19;94913.56;;;17.56;42.90
68179;BME280;69812;42.632;23.440;2023-04-30T07:58:46;94910.50;;;17.68;43.67
68179;BME280;69812;42.632;23.440;2023-04-30T08:01:11;94908.09;;;17.66;43.69
68179;BME280;69812;42.632;23.440;2023-04-30T08:03:36;94907.63;;;17.77;42.77
68179;BME280;69812;42.632;23.440;2023-04-30T08:06:02;94899.16;;;18.05;42.29
68179;BME280;69812;42.632;23.440;2023-04-30T08:08:28;94908.66;;;18.69;42.10
68179;BME280;69812;42.632;23.440;2023-04-30T08:10:56;94913.69;;;19.34;40.74
68179;BME280;69812;42.632;23.440;2023-04-30T08:13:24;94905.22;;;20.15;38.44
68179;BME280;69812;42.632;23.440;2023-04-30T08:15:49;94912.03;;;21.02;36.59
68179;BME280;69812;42.632;23.440;2023-04-30T08:18:15;94911.16;;;21.93;35.21
68179;BME280;69812;42.632;23.440;2023-04-30T08:20:40;94895.28;;;22.84;34.30
68179;BME280;69812;42.632;23.440;2023-04-30T08:23:06;94903.69;;;23.48;31.85
68179;BME280;69812;42.632;23.440;2023-04-30T08:25:31;94899.56;;;23.77;31.50
68179;BME280;69812;42.632;23.440;2023-04-30T08:27:57;94897.88;;;22.33;31.79
68179;BME280;69812;42.632;23.440;2023-04-30T08:30:22;94904.13;;;21.42;34.74
68179;BME280;69812;42.632;23.440;2023-04-30T08:32:48;94903.66;;;20.67;36.18
68179;BME280;69812;42.632;23.440;2023-04-30T08:35:14;94902.81;;;20.26;36.44
68179;BME280;69812;42.632;23.440;2023-04-30T08:37:41;94905.31;;;18.04;40.58
68179;BME280;69812;42.632;23.440;2023-04-30T08:40:07;94900.53;;;17.35;42.32
68179;BME280;69812;42.632;23.440;2023-04-30T08:42:48;94907.53;;;16.67;43.90
68179;BME280;69812;42.632;23.440;2023-04-30T08:45:16;94901.31;;;16.15;45.24
68179;BME280;69812;42.632;23.440;2023-04-30T08:47:51;94905.97;;;15.65;45.87
68179;BME280;69812;42.632;23.440;2023-04-30T08:50:16;94896.59;;;15.72;46.20
68179;BME280;69812;42.632;23.440;2023-04-30T08:52:42;94903.75;;;16.16;47.64
68179;BME280;69812;42.632;23.440;2023-04-30T08:55:20;94904.22;;;16.81;46.74
68179;BME280;69812;42.632;23.440;2023-04-30T08:57:46;94892.56;;;17.36;46.93
68179;BME280;69812;42.632;23.440;2023-04-30T09:00:12;94894.91;;;17.46;45.41
68179;BME280;69812;42.632;23.440;2023-04-30T09:02:39;94908.31;;;18.22;43.10
68179;BME280;69812;42.632;23.440;2023-04-30T09:05:10;94892.44;;;18.88;40.84
68179;BME280;69812;42.632;23.440;2023-04-30T09:07:41;94890.28;;;18.71;40.19
68179;BME280;69812;42.632;23.440;2023-04-30T09:12:40;94886.72;;;19.41;38.26
68179;BME280;69812;42.632;23.440;2023-04-30T09:15:07;94875.81;;;18.83;38.89
68179;BME280;69812;42.632;23.440;2023-04-30T09:17:34;94871.63;;;18.88;39.22
68179;BME280;69812;42.632;23.440;2023-04-30T09:20:12;94881.06;;;18.40;38.89
68179;BME280;69812;42.632;23.440;2023-04-30T09:23:04;94867.34;;;17.30;41.78
68179;BME280;69812;42.632;23.440;2023-04-30T09:25:40;94875.97;;;17.01;41.79
68179;BME280;69812;42.632;23.440;2023-04-30T09:28:12;94859.47;;;16.64;42.24
68179;BME280;69812;42.632;23.440;2023-04-30T09:30:41;94866.94;;;16.97;43.19
68179;BME280;69812;42.632;23.440;2023-04-30T09:33:09;94866.09;;;17.26;43.59
68179;BME280;69812;42.632;23.440;2023-04-30T09:35:36;94857.75;;;17.45;42.39
68179;BME280;69812;42.632;23.440;2023-04-30T09:38:25;94859.03;;;17.71;42.52
68179;BME280;69812;42.632;23.440;2023-04-30T09:40:51;94856.72;;;18.19;41.17
68179;BME280;69812;42.632;23.440;2023-04-30T09:43:16;94853.06;;;18.63;39.72
68179;BME280;69812;42.632;23.440;2023-04-30T09:45:45;94850.13;;;18.45;38.07
68179;BME280;69812;42.632;23.440;2023-04-30T09:48:25;94836.88;;;18.96;37.01
68179;BME280;69812;42.632;23.440;2023-04-30T09:50:53;94827.38;;;19.23;36.54
68179;BME280;69812;42.632;23.440;2023-04-30T09:53:19;94829.25;;;20.04;36.63
68179;BME280;69812;42.632;23.440;2023-04-30T09:55:49;94836.00;;;20.92;33.60
68179;BME280;69812;42.632;23.440;2023-04-30T09:58:16;94833.81;;;20.89;33.53
68179;BME280;69812;42.632;23.440;2023-04-30T10:00:45;94827.00;;;21.40;33.33
68179;BME280;69812;42.632;23.440;2023-04-30T10:03:15;94837.53;;;22.03;31.36
68179;BME280;69812;42.632;23.440;2023-04-30T10:05:45;94834.59;;;22.18;32.03
68179;BME280;69812;42.632;23.440;2023-04-30T10:08:27;94832.47;;;21.45;32.07
68179;BME280;69812;42.632;23.440;2023-04-30T10:10:58;94818.44;;;20.61;33.45
68179;BME280;69812;42.632;23.440;2023-04-30T10:13:28;94818.41;;;20.14;33.61
68179;BME280;69812;42.632;23.440;2023-04-30T10:15:59;94824.41;;;19.95;34.28
68179;BME280;69812;42.632;23.440;2023-04-30T10:18:32;94825.59;;;19.72;34.37
68179;BME280;69812;42.632;23.440;2023-04-30T10:21:01;94828.44;;;20.37;33.31
68179;BME280;69812;42.632;23.440;2023-04-30T10:23:30;94829.66;;;20.21;34.88
68179;BME280;69812;42.632;23.440;2023-04-30T10:26:02;94824.81;;;20.05;35.98
68179;BME280;69812;42.632;23.440;2023-04-30T10:28:28;94816.25;;;19.43;37.52
68179;BME280;69812;42.632;23.440;2023-04-30T10:30:55;94819.91;;;19.62;36.73
68179;BME280;69812;42.632;23.440;2023-04-30T10:33:47;94821.53;;;19.63;36.71
68179;BME280;69812;42.632;23.440;2023-04-30T10:36:23;94822.16;;;19.17;37.69
68179;BME280;69812;42.632;23.440;2023-04-30T10:38:50;94826.44;;;17.83;39.50
68179;BME280;69812;42.632;23.440;2023-04-30T10:41:18;94818.59;;;17.40;41.41
68179;BME280;69812;42.632;23.440;2023-04-30T10:43:45;94848.25;;;17.16;42.66
68179;BME280;69812;42.632;23.440;2023-04-30T10:46:20;94856.66;;;16.36;45.66
68179;BME280;69812;42.632;23.440;2023-04-30T10:48:51;94872.03;;;15.68;51.76
68179;BME280;69812;42.632;23.440;2023-04-30T10:51:20;94885.16;;;14.63;56.87
68179;BME280;69812;42.632;23.440;2023-04-30T10:53:48;94889.56;;;13.38;59.92
68179;BME280;69812;42.632;23.440;2023-04-30T10:56:28;94890.84;;;13.34;64.54
68179;BME280;69812;42.632;23.440;2023-04-30T10:59:02;94896.56;;;13.28;67.28
68179;BME280;69812;42.632;23.440;2023-04-30T11:01:28;94897.84;;;13.58;67.17
68179;BME280;69812;42.632;23.440;2023-04-30T11:04:29;94884.03;;;14.49;68.71
68179;BME280;69812;42.632;23.440;2023-04-30T11:07:06;94876.13;;;15.15;66.08
68179;BME280;69812;42.632;23.440;2023-04-30T11:09:42;94873.66;;;16.15;63.71
68179;BME280;69812;42.632;23.440;2023-04-30T11:12:19;94856.19;;;16.70;63.07
68179;BME280;69812;42.632;23.440;2023-04-30T11:14:52;94850.66;;;17.18;55.54
68179;BME280;69812;42.632;23.440;2023-04-30T11:17:24;94872.72;;;18.01;56.50
68179;BME280;69812;42.632;23.440;2023-04-30T11:19:58;94864.63;;;18.82;51.97
68179;BME280;69812;42.632;23.440;2023-04-30T11:22:26;94848.69;;;19.47;50.07
68179;BME280;69812;42.632;23.440;2023-04-30T11:27:31;94845.06;;;20.03;42.82
68179;BME280;69812;42.632;23.440;2023-04-30T11:29:58;94844.09;;;20.30;45.71
68179;BME280;69812;42.632;23.440;2023-04-30T11:32:25;94842.66;;;20.55;40.99
68179;BME280;69812;42.632;23.440;2023-04-30T11:34:51;94840.06;;;20.35;41.50
68179;BME280;69812;42.632;23.440;2023-04-30T11:37:24;94842.47;;;20.43;38.76
68179;BME280;69812;42.632;23.440;2023-04-30T11:39:53;94845.06;;;20.16;39.54
68179;BME280;69812;42.632;23.440;2023-04-30T11:42:19;94858.47;;;19.93;40.56
68179;BME280;69812;42.632;23.440;2023-04-30T11:44:45;94871.94;;;19.48;41.77
68179;BME280;69812;42.632;23.440;2023-04-30T11:47:14;94861.44;;;19.22;40.93
68179;BME280;69812;42.632;23.440;2023-04-30T11:49:43;94858.44;;;19.25;41.66
68179;BME280;69812;42.632;23.440;2023-04-30T11:52:11;94849.69;;;18.13;48.59
68179;BME280;69812;42.632;23.440;2023-04-30T11:54:37;94855.06;;;17.02;54.35
68179;BME280;69812;42.632;23.440;2023-04-30T11:57:04;94851.31;;;16.37;53.28
68179;BME280;69812;42.632;23.440;2023-04-30T11:59:31;94860.00;;;16.21;53.27
68179;BME280;69812;42.632;23.440;2023-04-30T12:02:05;94858.81;;;16.47;54.48
68179;BME280;69812;42.632;23.440;2023-04-30T12:04:31;94860.78;;;16.45;51.55
68179;BME280;69812;42.632;23.440;2023-04-30T12:06:56;94872.84;;;16.15;51.06
68179;BME280;69812;42.632;23.440;2023-04-30T12:09:24;94864.44;;;16.13;50.42
68179;BME280;69812;42.632;23.440;2023-04-30T12:11:50;94848.91;;;16.13;50.79
68179;BME280;69812;42.632;23.440;2023-04-30T12:14:15;94851.13;;;16.01;50.35
68179;BME280;69812;42.632;23.440;2023-04-30T12:16:48;94853.16;;;16.29;49.58
68179;BME280;69812;42.632;23.440;2023-04-30T12:19:27;94858.06;;;17.21;46.25
68179;BME280;69812;42.632;23.440;2023-04-30T12:22:00;94853.50;;;17.23;47.62
68179;BME280;69812;42.632;23.440;2023-04-30T12:24:26;94840.09;;;17.56;46.81
68179;BME280;69812;42.632;23.440;2023-04-30T12:26:52;94847.81;;;16.83;47.79
68179;BME280;69812;42.632;23.440;2023-04-30T12:29:21;94854.84;;;16.89;47.35
68179;BME280;69812;42.632;23.440;2023-04-30T12:31:48;94859.59;;;16.33;48.15
68179;BME280;69812;42.632;23.440;2023-04-30T12:34:15;94866.84;;;15.68;53.99
68179;BME280;69812;42.632;23.440;2023-04-30T12:36:41;94877.59;;;14.21;62.52
68179;BME280;69812;42.632;23.440;2023-04-30T12:39:13;94895.53;;;13.39;67.06
68179;BME280;69812;42.632;23.440;2023-04-30T12:41:48;94896.94;;;12.46;70.35
68179;BME280;69812;42.632;23.440;2023-04-30T12:47:06;94871.56;;;11.26;81.39
68179;BME280;69812;42.632;23.440;2023-04-30T12:49:37;94864.66;;;11.26;83.93
68179;BME280;69812;42.632;23.440;2023-04-30T12:54:36;94861.50;;;11.60;86.04
68179;BME280;69812;42.632;23.440;2023-04-30T12:57:03;94862.97;;;11.63;84.57
68179;BME280;69812;42.632;23.440;2023-04-30T12:59:30;94846.94;;;11.87;86.02
68179;BME280;69812;42.632;23.440;2023-04-30T13:02:10;94861.63;;;12.30;83.76
68179;BME280;69812;42.632;23.440;2023-04-30T13:04:39;94850.88;;;12.61;81.92
68179;BME280;69812;42.632;23.440;2023-04-30T13:07:05;94852.84;;;13.02;81.94
68179;BME280;69812;42.632;23.440;2023-04-30T13:09:35;94847.22;;;13.57;81.42
68179;BME280;69812;42.632;23.440;2023-04-30T13:12:01;94838.56;;;13.99;82.95
68179;BME280;69812;42.632;23.440;2023-04-30T13:14:27;94829.50;;;14.36;81.45
68179;BME280;69812;42.632;23.440;2023-04-30T13:16:53;94832.03;;;14.77;79.17
68179;BME280;69812;42.632;23.440;2023-04-30T13:19:21;94843.50;;;15.76;77.61
68179;BME280;69812;42.632;23.440;2023-04-30T13:21:46;94825.28;;;16.16;69.45
68179;BME280;69812;42.632;23.440;2023-04-30T13:24:12;94831.97;;;17.08;72.51